sensor_id;sensor_type;location;lat;lon;timestamp;pressure;altitude;pressure_sealevel;temperature;humidity
7105;BME280;3594;42.152;24.714;2023-04-19T00:00:17;-24107.75;;;10.41;nan
7105;BME280;3594;42.152;24.714;2023-04-19T00:02:44;-24107.88;;;10.41;nan
7105;BME280;3594;42.152;24.714;2023-04-19T00:05:09;-24100.97;;;10.16;nan
7105;BME280;3594;42.152;24.714;2023-04-19T00:07:36;-24101.97;;;10.20;nan
7105;BME280;3594;42.152;24.714;2023-04-19T00:10:01;-24106.19;;;10.35;nan
7105;BME280;3594;42.152;24.714;2023-04-19T00:12:27;-24106.91;;;10.38;nan
7105;BME280;3594;42.152;24.714;2023-04-19T00:14:52;-24105.50;;;10.33;nan
7105;BME280;3594;42.152;24.714;2023-04-19T00:17:18;-24104.78;;;10.30;nan
7105;BME280;3594;42.152;24.714;2023-04-19T00:19:44;-24094.91;;;9.95;nan
7105;BME280;3594;42.152;24.714;2023-04-19T00:22:09;-24102.25;;;10.21;nan
7105;BME280;3594;42.152;24.714;2023-04-19T00:24:35;-24105.63;;;10.33;nan
7105;BME280;3594;42.152;24.714;2023-04-19T00:27:00;-24105.06;;;10.31;nan
7105;BME280;3594;42.152;24.714;2023-04-19T00:29:26;-24094.06;;;9.92;nan
7105;BME280;3594;42.152;24.714;2023-04-19T00:31:51;-24092.63;;;9.87;nan
7105;BME280;3594;42.152;24.714;2023-04-19T00:34:17;-24103.66;;;10.26;nan
7105;BME280;3594;42.152;24.714;2023-04-19T00:36:42;-24106.47;;;10.36;nan
7105;BME280;3594;42.152;24.714;2023-04-19T00:39:08;-24097.72;;;10.05;nan
7105;BME280;3594;42.152;24.714;2023-04-19T00:41:33;-24097.31;;;10.03;nan
7105;BME280;3594;42.152;24.714;2023-04-19T00:43:58;-24104.66;;;10.30;nan
7105;BME280;3594;42.152;24.714;2023-04-19T00:46:24;-24097.72;;;10.05;nan
7105;BME280;3594;42.152;24.714;2023-04-19T00:48:50;-24104.66;;;10.30;nan
7105;BME280;3594;42.152;24.714;2023-04-19T00:51:15;-24095.31;;;9.96;nan
7105;BME280;3594;42.152;24.714;2023-04-19T00:53:42;-24102.38;;;10.22;nan
7105;BME280;3594;42.152;24.714;2023-04-19T00:56:08;-24103.66;;;10.26;nan
7105;BME280;3594;42.152;24.714;2023-04-19T00:58:36;-24106.34;;;10.36;nan
7105;BME280;3594;42.152;24.714;2023-04-19T01:01:02;-24097.44;;;10.04;nan
7105;BME280;3594;42.152;24.714;2023-04-19T01:03:28;-24097.72;;;10.05;nan
7105;BME280;3594;42.152;24.714;2023-04-19T01:05:54;-24103.38;;;10.25;nan
7105;BME280;3594;42.152;24.714;2023-04-19T01:08:21;-24101.41;;;10.18;nan
7105;BME280;3594;42.152;24.714;2023-04-19T01:10:47;-24100.84;;;10.16;nan
7105;BME280;3594;42.152;24.714;2023-04-19T01:13:12;-24095.47;;;9.97;nan
7105;BME280;3594;42.152;24.714;2023-04-19T01:15:37;-24099.56;;;10.11;nan
7105;BME280;3594;42.152;24.714;2023-04-19T01:18:03;-24093.63;;;9.90;nan
7105;BME280;3594;42.152;24.714;2023-04-19T01:20:28;-24098.16;;;10.06;nan
7105;BME280;3594;42.152;24.714;2023-04-19T01:22:54;-24105.91;;;10.34;nan
7105;BME280;3594;42.152;24.714;2023-04-19T01:25:19;-24106.63;;;10.37;nan
7105;BME280;3594;42.152;24.714;2023-04-19T01:27:45;-24097.72;;;10.05;nan
7105;BME280;3594;42.152;24.714;2023-04-19T01:30:11;-24094.34;;;9.93;nan
7105;BME280;3594;42.152;24.714;2023-04-19T01:32:36;-24091.50;;;9.83;nan
7105;BME280;3594;42.152;24.714;2023-04-19T01:35:01;-24099.41;;;10.11;nan
7105;BME280;3594;42.152;24.714;2023-04-19T01:37:27;-24107.03;;;10.38;nan
7105;BME280;3594;42.152;24.714;2023-04-19T01:39:52;-24108.47;;;10.43;nan
7105;BME280;3594;42.152;24.714;2023-04-19T01:42:17;-24100.53;;;10.15;nan
7105;BME280;3594;42.152;24.714;2023-04-19T01:44:43;-24109.03;;;10.45;nan
7105;BME280;3594;42.152;24.714;2023-04-19T01:47:08;-24098.56;;;10.08;nan
7105;BME280;3594;42.152;24.714;2023-04-19T01:49:34;-24098.84;;;10.09;nan
7105;BME280;3594;42.152;24.714;2023-04-19T01:51:59;-24102.25;;;10.21;nan
7105;BME280;3594;42.152;24.714;2023-04-19T01:54:25;-24098.00;;;10.06;nan
7105;BME280;3594;42.152;24.714;2023-04-19T01:56:51;-24101.69;;;10.19;nan
7105;BME280;3594;42.152;24.714;2023-04-19T01:59:16;-24100.25;;;10.14;nan
7105;BME280;3594;42.152;24.714;2023-04-19T02:01:42;-24098.56;;;10.08;nan
7105;BME280;3594;42.152;24.714;2023-04-19T02:04:08;-24089.66;;;9.76;nan
7105;BME280;3594;42.152;24.714;2023-04-19T02:06:33;-24100.41;;;10.14;nan
7105;BME280;3594;42.152;24.714;2023-04-19T02:08:58;-24095.03;;;9.95;nan
7105;BME280;3594;42.152;24.714;2023-04-19T02:11:24;-24095.75;;;9.98;nan
7105;BME280;3594;42.152;24.714;2023-04-19T02:13:49;-24100.41;;;10.14;nan
7105;BME280;3594;42.152;24.714;2023-04-19T02:16:15;-24102.09;;;10.21;nan
7105;BME280;3594;42.152;24.714;2023-04-19T02:18:40;-24098.72;;;10.08;nan
7105;BME280;3594;42.152;24.714;2023-04-19T02:21:07;-24094.06;;;9.92;nan
7105;BME280;3594;42.152;24.714;2023-04-19T02:23:33;-24091.66;;;9.83;nan
7105;BME280;3594;42.152;24.714;2023-04-19T02:25:59;-24089.66;;;9.76;nan
7105;BME280;3594;42.152;24.714;2023-04-19T02:28:28;-24096.72;;;10.01;nan
7105;BME280;3594;42.152;24.714;2023-04-19T02:30:54;-24092.63;;;9.87;nan
7105;BME280;3594;42.152;24.714;2023-04-19T02:33:21;-24086.56;;;9.65;nan
7105;BME280;3594;42.152;24.714;2023-04-19T02:35:46;-24095.31;;;9.96;nan
7105;BME280;3594;42.152;24.714;2023-04-19T02:38:12;-24099.56;;;10.11;nan
7105;BME280;3594;42.152;24.714;2023-04-19T02:40:37;-24099.84;;;10.12;nan
7105;BME280;3594;42.152;24.714;2023-04-19T02:43:02;-24100.84;;;10.16;nan
7105;BME280;3594;42.152;24.714;2023-04-19T02:45:28;-24093.47;;;9.90;nan
7105;BME280;3594;42.152;24.714;2023-04-19T02:47:53;-24096.44;;;10.00;nan
7105;BME280;3594;42.152;24.714;2023-04-19T02:50:19;-24095.59;;;9.97;nan
7105;BME280;3594;42.152;24.714;2023-04-19T02:52:44;-24095.47;;;9.97;nan
7105;BME280;3594;42.152;24.714;2023-04-19T02:55:10;-24097.44;;;10.04;nan
7105;BME280;3594;42.152;24.714;2023-04-19T02:57:35;-24095.19;;;9.96;nan
7105;BME280;3594;42.152;24.714;2023-04-19T03:00:00;-24089.25;;;9.74;nan
7105;BME280;3594;42.152;24.714;2023-04-19T03:02:26;-24097.31;;;10.03;nan
7105;BME280;3594;42.152;24.714;2023-04-19T03:04:51;-24089.25;;;9.74;nan
7105;BME280;3594;42.152;24.714;2023-04-19T03:07:20;-24086.84;;;9.66;nan
7105;BME280;3594;42.152;24.714;2023-04-19T03:09:45;-24098.44;;;10.07;nan
7105;BME280;3594;42.152;24.714;2023-04-19T03:12:10;-24103.78;;;10.27;nan
7105;BME280;3594;42.152;24.714;2023-04-19T03:14:36;-24099.84;;;10.12;nan
7105;BME280;3594;42.152;24.714;2023-04-19T03:17:01;-24101.97;;;10.20;nan
7105;BME280;3594;42.152;24.714;2023-04-19T03:19:27;-24097.31;;;10.03;nan
7105;BME280;3594;42.152;24.714;2023-04-19T03:21:53;-24094.63;;;9.94;nan
7105;BME280;3594;42.152;24.714;2023-04-19T03:24:18;-24098.56;;;10.08;nan
7105;BME280;3594;42.152;24.714;2023-04-19T03:26:44;-24097.88;;;10.05;nan
7105;BME280;3594;42.152;24.714;2023-04-19T03:29:10;-24103.38;;;10.25;nan
7105;BME280;3594;42.152;24.714;2023-04-19T03:31:36;-24103.38;;;10.25;nan
7105;BME280;3594;42.152;24.714;2023-04-19T03:34:01;-24096.59;;;10.01;nan
7105;BME280;3594;42.152;24.714;2023-04-19T03:36:27;-24103.38;;;10.25;nan
7105;BME280;3594;42.152;24.714;2023-04-19T03:38:52;-24102.25;;;10.21;nan
7105;BME280;3594;42.152;24.714;2023-04-19T03:41:19;-24103.78;;;10.27;nan
7105;BME280;3594;42.152;24.714;2023-04-19T03:43:44;-24094.91;;;9.95;nan
7105;BME280;3594;42.152;24.714;2023-04-19T03:46:10;-24104.78;;;10.30;nan
7105;BME280;3594;42.152;24.714;2023-04-19T03:48:35;-24103.38;;;10.25;nan
7105;BME280;3594;42.152;24.714;2023-04-19T03:51:01;-24097.72;;;10.05;nan
7105;BME280;3594;42.152;24.714;2023-04-19T03:53:26;-24108.75;;;10.44;nan
7105;BME280;3594;42.152;24.714;2023-04-19T03:55:51;-24105.34;;;10.32;nan
7105;BME280;3594;42.152;24.714;2023-04-19T03:58:17;-24109.59;;;10.47;nan
7105;BME280;3594;42.152;24.714;2023-04-19T04:00:42;-24100.41;;;10.14;nan
7105;BME280;3594;42.152;24.714;2023-04-19T04:03:08;-24108.03;;;10.42;nan
7105;BME280;3594;42.152;24.714;2023-04-19T04:05:33;-24109.16;;;10.46;nan
7105;BME280;3594;42.152;24.714;2023-04-19T04:07:59;-24099.13;;;10.10;nan
7105;BME280;3594;42.152;24.714;2023-04-19T04:10:25;-24100.53;;;10.15;nan
7105;BME280;3594;42.152;24.714;2023-04-19T04:12:50;-24108.75;;;10.44;nan
7105;BME280;3594;42.152;24.714;2023-04-19T04:15:16;-24114.66;;;10.66;nan
7105;BME280;3594;42.152;24.714;2023-04-19T04:17:41;-24109.03;;;10.45;nan
7105;BME280;3594;42.152;24.714;2023-04-19T04:20:07;-24113.53;;;10.61;nan
7105;BME280;3594;42.152;24.714;2023-04-19T04:22:33;-24109.88;;;10.48;nan
7105;BME280;3594;42.152;24.714;2023-04-19T04:24:58;-24114.81;;;10.66;nan
7105;BME280;3594;42.152;24.714;2023-04-19T04:27:25;-24111.84;;;10.55;nan
7105;BME280;3594;42.152;24.714;2023-04-19T04:29:50;-24120.72;;;10.87;nan
7105;BME280;3594;42.152;24.714;2023-04-19T04:32:15;-24119.88;;;10.84;nan
7105;BME280;3594;42.152;24.714;2023-04-19T04:34:42;-24122.56;;;10.94;nan
7105;BME280;3594;42.152;24.714;2023-04-19T04:37:08;-24126.38;;;11.07;nan
7105;BME280;3594;42.152;24.714;2023-04-19T04:39:34;-24125.09;;;11.03;nan
7105;BME280;3594;42.152;24.714;2023-04-19T04:42:04;-24131.03;;;11.24;nan
7105;BME280;3594;42.152;24.714;2023-04-19T04:44:32;-24125.66;;;11.05;nan
7105;BME280;3594;42.152;24.714;2023-04-19T04:46:58;-24120.16;;;10.85;nan
7105;BME280;3594;42.152;24.714;2023-04-19T04:49:23;-24133.56;;;11.33;nan
7105;BME280;3594;42.152;24.714;2023-04-19T04:51:49;-24130.75;;;11.23;nan
7105;BME280;3594;42.152;24.714;2023-04-19T04:54:14;-24139.75;;;11.56;nan
7105;BME280;3594;42.152;24.714;2023-04-19T04:56:39;-24134.97;;;11.38;nan
7105;BME280;3594;42.152;24.714;2023-04-19T04:59:05;-24138.78;;;11.52;nan
7105;BME280;3594;42.152;24.714;2023-04-19T05:01:31;-24133.41;;;11.33;nan
7105;BME280;3594;42.152;24.714;2023-04-19T05:03:57;-24134.97;;;11.38;nan
7105;BME280;3594;42.152;24.714;2023-04-19T05:06:22;-24143.00;;;11.67;nan
7105;BME280;3594;42.152;24.714;2023-04-19T05:08:48;-24143.69;;;11.70;nan
7105;BME280;3594;42.152;24.714;2023-04-19T05:11:13;-24144.13;;;11.71;nan
7105;BME280;3594;42.152;24.714;2023-04-19T05:13:39;-24150.88;;;11.95;nan
7105;BME280;3594;42.152;24.714;2023-04-19T05:16:04;-24141.03;;;11.60;nan
7105;BME280;3594;42.152;24.714;2023-04-19T05:18:30;-24143.28;;;11.68;nan
7105;BME280;3594;42.152;24.714;2023-04-19T05:20:56;-24152.16;;;12.00;nan
7105;BME280;3594;42.152;24.714;2023-04-19T05:23:21;-24158.50;;;12.23;nan
7105;BME280;3594;42.152;24.714;2023-04-19T05:25:47;-24148.34;;;11.86;nan
7105;BME280;3594;42.152;24.714;2023-04-19T05:28:12;-24154.25;;;12.08;nan
7105;BME280;3594;42.152;24.714;2023-04-19T05:30:38;-24158.06;;;12.21;nan
7105;BME280;3594;42.152;24.714;2023-04-19T05:33:04;-24160.88;;;12.31;nan
7105;BME280;3594;42.152;24.714;2023-04-19T05:35:29;-24161.44;;;12.33;nan
7105;BME280;3594;42.152;24.714;2023-04-19T05:37:54;-24162.00;;;12.35;nan
7105;BME280;3594;42.152;24.714;2023-04-19T05:40:20;-24158.22;;;12.22;nan
7105;BME280;3594;42.152;24.714;2023-04-19T05:42:48;-24166.78;;;12.53;nan
7105;BME280;3594;42.152;24.714;2023-04-19T05:45:14;-24165.81;;;12.49;nan
7105;BME280;3594;42.152;24.714;2023-04-19T05:47:40;-24170.03;;;12.64;nan
7105;BME280;3594;42.152;24.714;2023-04-19T05:50:06;-24160.47;;;12.30;nan
7105;BME280;3594;42.152;24.714;2023-04-19T05:52:32;-24165.66;;;12.49;nan
7105;BME280;3594;42.152;24.714;2023-04-19T05:54:58;-24171.56;;;12.70;nan
7105;BME280;3594;42.152;24.714;2023-04-19T05:57:23;-24177.75;;;12.92;nan
7105;BME280;3594;42.152;24.714;2023-04-19T05:59:49;-24174.09;;;12.79;nan
7105;BME280;3594;42.152;24.714;2023-04-19T06:02:14;-24174.53;;;12.80;nan
7105;BME280;3594;42.152;24.714;2023-04-19T06:04:40;-24188.72;;;13.32;nan
7105;BME280;3594;42.152;24.714;2023-04-19T06:07:06;-24185.34;;;13.19;nan
7105;BME280;3594;42.152;24.714;2023-04-19T06:09:31;-24183.66;;;13.13;nan
7105;BME280;3594;42.152;24.714;2023-04-19T06:11:56;-24186.91;;;13.25;nan
7105;BME280;3594;42.152;24.714;2023-04-19T06:14:22;-24187.47;;;13.27;nan
7105;BME280;3594;42.152;24.714;2023-04-19T06:16:47;-24196.31;;;13.59;nan
7105;BME280;3594;42.152;24.714;2023-04-19T06:19:13;-24194.75;;;13.53;nan
7105;BME280;3594;42.152;24.714;2023-04-19T06:21:39;-24206.97;;;13.97;nan
7105;BME280;3594;42.152;24.714;2023-04-19T06:24:07;-24197.44;;;13.63;nan
7105;BME280;3594;42.152;24.714;2023-04-19T06:26:33;-24217.34;;;14.35;nan
7105;BME280;3594;42.152;24.714;2023-04-19T06:28:58;-24216.94;;;14.33;nan
7105;BME280;3594;42.152;24.714;2023-04-19T06:31:24;-24222.41;;;14.53;nan
7105;BME280;3594;42.152;24.714;2023-04-19T06:33:49;-24217.22;;;14.34;nan
7105;BME280;3594;42.152;24.714;2023-04-19T06:36:15;-24211.59;;;14.14;nan
7105;BME280;3594;42.152;24.714;2023-04-19T06:38:40;-24220.31;;;14.45;nan
7105;BME280;3594;42.152;24.714;2023-04-19T06:41:08;-24225.06;;;14.63;nan
7105;BME280;3594;42.152;24.714;2023-04-19T06:43:34;-24237.53;;;15.08;nan
7105;BME280;3594;42.152;24.714;2023-04-19T06:46:00;-24240.78;;;15.19;nan
7105;BME280;3594;42.152;24.714;2023-04-19T06:48:26;-24250.16;;;15.53;nan
7105;BME280;3594;42.152;24.714;2023-04-19T06:50:52;-24240.22;;;15.17;nan
7105;BME280;3594;42.152;24.714;2023-04-19T06:53:18;-24255.91;;;15.74;nan
7105;BME280;3594;42.152;24.714;2023-04-19T06:55:43;-24242.44;;;15.25;nan
7105;BME280;3594;42.152;24.714;2023-04-19T06:58:09;-24249.31;;;15.50;nan
7105;BME280;3594;42.152;24.714;2023-04-19T07:00:35;-24239.78;;;15.16;nan
7105;BME280;3594;42.152;24.714;2023-04-19T07:03:01;-24250.16;;;15.53;nan
7105;BME280;3594;42.152;24.714;2023-04-19T07:05:27;-24248.91;;;15.48;nan
7105;BME280;3594;42.152;24.714;2023-04-19T07:07:53;-24253.66;;;15.66;nan
7105;BME280;3594;42.152;24.714;2023-04-19T07:10:18;-24255.47;;;15.72;nan
7105;BME280;3594;42.152;24.714;2023-04-19T07:12:43;-24246.09;;;15.38;nan
7105;BME280;3594;42.152;24.714;2023-04-19T07:15:09;-24265.97;;;16.10;nan
7105;BME280;3594;42.152;24.714;2023-04-19T07:17:35;-24258.56;;;15.83;nan
7105;BME280;3594;42.152;24.714;2023-04-19T07:20:01;-24255.06;;;15.71;nan
7105;BME280;3594;42.152;24.714;2023-04-19T07:22:28;-24246.22;;;15.39;nan
7105;BME280;3594;42.152;24.714;2023-04-19T07:24:53;-24247.78;;;15.44;nan
7105;BME280;3594;42.152;24.714;2023-04-19T07:27:19;-24259.53;;;15.87;nan
7105;BME280;3594;42.152;24.714;2023-04-19T07:29:44;-24255.91;;;15.74;nan
7105;BME280;3594;42.152;24.714;2023-04-19T07:32:10;-24255.06;;;15.71;nan
7105;BME280;3594;42.152;24.714;2023-04-19T07:34:37;-24246.66;;;15.40;nan
7105;BME280;3594;42.152;24.714;2023-04-19T07:37:05;-24250.72;;;15.55;nan
7105;BME280;3594;42.152;24.714;2023-04-19T07:39:31;-24257.44;;;15.79;nan
7105;BME280;3594;42.152;24.714;2023-04-19T07:41:56;-24244.13;;;15.31;nan
7105;BME280;3594;42.152;24.714;2023-04-19T07:44:22;-24259.53;;;15.87;nan
7105;BME280;3594;42.152;24.714;2023-04-19T07:46:47;-24254.34;;;15.68;nan
7105;BME280;3594;42.152;24.714;2023-04-19T07:49:13;-24265.13;;;16.07;nan
7105;BME280;3594;42.152;24.714;2023-04-19T07:51:38;-24252.94;;;15.63;nan
7105;BME280;3594;42.152;24.714;2023-04-19T07:54:04;-24259.81;;;15.88;nan
7105;BME280;3594;42.152;24.714;2023-04-19T07:56:29;-24260.22;;;15.89;nan
7105;BME280;3594;42.152;24.714;2023-04-19T07:58:54;-24266.66;;;16.13;nan
7105;BME280;3594;42.152;24.714;2023-04-19T08:01:20;-24267.66;;;16.16;nan
7105;BME280;3594;42.152;24.714;2023-04-19T08:03:45;-24264.28;;;16.04;nan
7105;BME280;3594;42.152;24.714;2023-04-19T08:06:11;-24265.97;;;16.10;nan
7105;BME280;3594;42.152;24.714;2023-04-19T08:08:36;-24273.25;;;16.37;nan
7105;BME280;3594;42.152;24.714;2023-04-19T08:11:03;-24279.13;;;16.58;nan
7105;BME280;3594;42.152;24.714;2023-04-19T08:13:28;-24265.00;;;16.07;nan
7105;BME280;3594;42.152;24.714;2023-04-19T08:15:54;-24266.81;;;16.13;nan
7105;BME280;3594;42.152;24.714;2023-04-19T08:18:20;-24269.19;;;16.22;nan
7105;BME280;3594;42.152;24.714;2023-04-19T08:20:46;-24273.25;;;16.37;nan
7105;BME280;3594;42.152;24.714;2023-04-19T08:23:11;-24274.50;;;16.41;nan
7105;BME280;3594;42.152;24.714;2023-04-19T08:25:37;-24269.47;;;16.23;nan
7105;BME280;3594;42.152;24.714;2023-04-19T08:28:03;-24271.97;;;16.32;nan
7105;BME280;3594;42.152;24.714;2023-04-19T08:30:29;-24261.34;;;15.94;nan
7105;BME280;3594;42.152;24.714;2023-04-19T08:32:54;-24279.25;;;16.58;nan
7105;BME280;3594;42.152;24.714;2023-04-19T08:35:20;-24279.94;;;16.61;nan
7105;BME280;3594;42.152;24.714;2023-04-19T08:37:47;-24278.97;;;16.57;nan
7105;BME280;3594;42.152;24.714;2023-04-19T08:40:13;-24280.94;;;16.64;nan
7105;BME280;3594;42.152;24.714;2023-04-19T08:42:39;-24289.03;;;16.94;nan
7105;BME280;3594;42.152;24.714;2023-04-19T08:45:05;-24286.38;;;16.84;nan
7105;BME280;3594;42.152;24.714;2023-04-19T08:47:32;-24298.94;;;17.30;nan
7105;BME280;3594;42.152;24.714;2023-04-19T08:50:03;-24307.31;;;17.60;nan
7105;BME280;3594;42.152;24.714;2023-04-19T08:52:32;-24312.06;;;17.77;nan
7105;BME280;3594;42.152;24.714;2023-04-19T08:55:03;-24307.47;;;17.60;nan
7105;BME280;3594;42.152;24.714;2023-04-19T08:57:32;-24310.66;;;17.72;nan
7105;BME280;3594;42.152;24.714;2023-04-19T09:00:02;-24303.81;;;17.47;nan
7105;BME280;3594;42.152;24.714;2023-04-19T09:02:44;-24305.34;;;17.53;nan
7105;BME280;3594;42.152;24.714;2023-04-19T09:05:12;-24305.50;;;17.53;nan
7105;BME280;3594;42.152;24.714;2023-04-19T09:07:38;-24315.28;;;17.89;nan
7105;BME280;3594;42.152;24.714;2023-04-19T09:10:09;-24314.28;;;17.85;nan
7105;BME280;3594;42.152;24.714;2023-04-19T09:12:36;-24325.16;;;18.25;nan
7105;BME280;3594;42.152;24.714;2023-04-19T09:15:03;-24304.38;;;17.49;nan
7105;BME280;3594;42.152;24.714;2023-04-19T09:17:30;-24299.38;;;17.31;nan
7105;BME280;3594;42.152;24.714;2023-04-19T09:19:56;-24309.97;;;17.70;nan
7105;BME280;3594;42.152;24.714;2023-04-19T09:22:22;-24325.31;;;18.25;nan
7105;BME280;3594;42.152;24.714;2023-04-19T09:24:48;-24306.06;;;17.55;nan
7105;BME280;3594;42.152;24.714;2023-04-19T09:27:33;-24302.16;;;17.41;nan
7105;BME280;3594;42.152;24.714;2023-04-19T09:30:00;-24308.56;;;17.64;nan
7105;BME280;3594;42.152;24.714;2023-04-19T09:32:27;-24325.72;;;18.27;nan
7105;BME280;3594;42.152;24.714;2023-04-19T09:34:55;-24337.16;;;18.68;nan
7105;BME280;3594;42.152;24.714;2023-04-19T09:37:20;-24332.81;;;18.52;nan
7105;BME280;3594;42.152;24.714;2023-04-19T09:39:46;-24324.19;;;18.21;nan
7105;BME280;3594;42.152;24.714;2023-04-19T09:42:12;-24329.75;;;18.41;nan
7105;BME280;3594;42.152;24.714;2023-04-19T09:44:37;-24335.91;;;18.64;nan
7105;BME280;3594;42.152;24.714;2023-04-19T09:47:20;-24345.50;;;18.98;nan
7105;BME280;3594;42.152;24.714;2023-04-19T09:49:47;-24334.63;;;18.59;nan
7105;BME280;3594;42.152;24.714;2023-04-19T09:52:13;-24338.41;;;18.73;nan
7105;BME280;3594;42.152;24.714;2023-04-19T09:54:40;-24335.75;;;18.63;nan
7105;BME280;3594;42.152;24.714;2023-04-19T09:57:07;-24346.91;;;19.04;nan
7105;BME280;3594;42.152;24.714;2023-04-19T09:59:32;-24352.03;;;19.22;nan
7105;BME280;3594;42.152;24.714;2023-04-19T10:01:58;-24364.00;;;19.66;nan
7105;BME280;3594;42.152;24.714;2023-04-19T10:04:25;-24371.22;;;19.92;nan
7105;BME280;3594;42.152;24.714;2023-04-19T10:06:53;-24381.22;;;20.28;nan
7105;BME280;3594;42.152;24.714;2023-04-19T10:09:20;-24365.41;;;19.71;nan
7105;BME280;3594;42.152;24.714;2023-04-19T10:11:51;-24367.47;;;19.78;nan
7105;BME280;3594;42.152;24.714;2023-04-19T10:14:21;-24369.84;;;19.87;nan
7105;BME280;3594;42.152;24.714;2023-04-19T10:16:47;-24358.44;;;19.46;nan
7105;BME280;3594;42.152;24.714;2023-04-19T10:19:14;-24357.59;;;19.42;nan
7105;BME280;3594;42.152;24.714;2023-04-19T10:21:41;-24359.84;;;19.51;nan
7105;BME280;3594;42.152;24.714;2023-04-19T10:24:08;-24362.63;;;19.61;nan
7105;BME280;3594;42.152;24.714;2023-04-19T10:32:40;-24384.16;;;20.39;nan
7105;BME280;3594;42.152;24.714;2023-04-19T10:35:15;-24382.34;;;20.33;nan
7105;BME280;3594;42.152;24.714;2023-04-19T10:38:01;-24384.84;;;20.42;nan
7105;BME280;3594;42.152;24.714;2023-04-19T10:40:56;-24358.44;;;19.46;nan
7105;BME280;3594;42.152;24.714;2023-04-19T10:43:34;-24354.53;;;19.31;nan
7105;BME280;3594;42.152;24.714;2023-04-19T10:51:25;-24357.34;;;19.41;nan
7105;BME280;3594;42.152;24.714;2023-04-19T10:53:59;-24355.94;;;19.36;nan
7105;BME280;3594;42.152;24.714;2023-04-19T11:01:53;-24341.88;;;18.85;nan
7105;BME280;3594;42.152;24.714;2023-04-19T11:07:08;-24353.16;;;19.26;nan
7105;BME280;3594;42.152;24.714;2023-04-19T11:09:36;-24354.81;;;19.32;nan
7105;BME280;3594;42.152;24.714;2023-04-19T11:12:24;-24362.34;;;19.60;nan
7105;BME280;3594;42.152;24.714;2023-04-19T11:14:52;-24370.97;;;19.91;nan
7105;BME280;3594;42.152;24.714;2023-04-19T11:17:22;-24382.91;;;20.35;nan
7105;BME280;3594;42.152;24.714;2023-04-19T11:22:23;-24401.50;;;21.02;nan
7105;BME280;3594;42.152;24.714;2023-04-19T11:24:49;-24392.63;;;20.70;nan
7105;BME280;3594;42.152;24.714;2023-04-19T11:27:14;-24391.50;;;20.66;nan
7105;BME280;3594;42.152;24.714;2023-04-19T11:29:39;-24396.78;;;20.85;nan
7105;BME280;3594;42.152;24.714;2023-04-19T11:32:05;-24410.94;;;21.37;nan
7105;BME280;3594;42.152;24.714;2023-04-19T11:34:35;-24412.31;;;21.42;nan
7105;BME280;3594;42.152;24.714;2023-04-19T11:37:04;-24413.44;;;21.46;nan
7105;BME280;3594;42.152;24.714;2023-04-19T11:39:30;-24421.03;;;21.74;nan
7105;BME280;3594;42.152;24.714;2023-04-19T11:41:55;-24381.38;;;20.29;nan
7105;BME280;3594;42.152;24.714;2023-04-19T11:44:22;-24373.47;;;20.00;nan
7105;BME280;3594;42.152;24.714;2023-04-19T11:47:02;-24358.16;;;19.45;nan
7105;BME280;3594;42.152;24.714;2023-04-19T11:49:31;-24340.50;;;18.80;nan
7105;BME280;3594;42.152;24.714;2023-04-19T11:51:58;-24323.78;;;18.20;nan
7105;BME280;3594;42.152;24.714;2023-04-19T11:54:24;-24323.78;;;18.20;nan
7105;BME280;3594;42.152;24.714;2023-04-19T11:57:00;-24319.03;;;18.02;nan
7105;BME280;3594;42.152;24.714;2023-04-19T11:59:30;-24316.94;;;17.95;nan
7105;BME280;3594;42.152;24.714;2023-04-19T12:02:07;-24320.28;;;18.07;nan
7105;BME280;3594;42.152;24.714;2023-04-19T12:04:36;-24315.69;;;17.90;nan
7105;BME280;3594;42.152;24.714;2023-04-19T12:07:02;-24319.59;;;18.04;nan
7105;BME280;3594;42.152;24.714;2023-04-19T12:09:28;-24310.13;;;17.70;nan
7105;BME280;3594;42.152;24.714;2023-04-19T12:11:54;-24284.84;;;16.78;nan
7105;BME280;3594;42.152;24.714;2023-04-19T12:14:21;-24260.50;;;15.90;nan
7105;BME280;3594;42.152;24.714;2023-04-19T12:19:45;-24226.06;;;14.66;nan
7105;BME280;3594;42.152;24.714;2023-04-19T12:22:13;-24228.44;;;14.75;nan
7105;BME280;3594;42.152;24.714;2023-04-19T12:24:39;-24221.00;;;14.48;nan
7105;BME280;3594;42.152;24.714;2023-04-19T12:27:05;-24214.84;;;14.26;nan
7105;BME280;3594;42.152;24.714;2023-04-19T12:29:31;-24199.41;;;13.70;nan
7105;BME280;3594;42.152;24.714;2023-04-19T12:31:58;-24210.63;;;14.10;nan
7105;BME280;3594;42.152;24.714;2023-04-19T12:34:24;-24214.41;;;14.24;nan
7105;BME280;3594;42.152;24.714;2023-04-19T12:36:50;-24219.03;;;14.41;nan
7105;BME280;3594;42.152;24.714;2023-04-19T12:39:15;-24227.03;;;14.70;nan
7105;BME280;3594;42.152;24.714;2023-04-19T12:41:41;-24223.66;;;14.57;nan
7105;BME280;3594;42.152;24.714;2023-04-19T12:44:07;-24228.16;;;14.74;nan
7105;BME280;3594;42.152;24.714;2023-04-19T12:46:35;-24227.31;;;14.71;nan
7105;BME280;3594;42.152;24.714;2023-04-19T12:49:01;-24233.06;;;14.91;nan
7105;BME280;3594;42.152;24.714;2023-04-19T12:51:26;-24249.31;;;15.50;nan
7105;BME280;3594;42.152;24.714;2023-04-19T12:53:52;-24241.19;;;15.21;nan
7105;BME280;3594;42.152;24.714;2023-04-19T12:56:18;-24232.38;;;14.89;nan
7105;BME280;3594;42.152;24.714;2023-04-19T12:58:44;-24234.75;;;14.97;nan
7105;BME280;3594;42.152;24.714;2023-04-19T13:01:09;-24232.78;;;14.90;nan
7105;BME280;3594;42.152;24.714;2023-04-19T13:03:39;-24238.53;;;15.11;nan
7105;BME280;3594;42.152;24.714;2023-04-19T13:06:12;-24242.59;;;15.26;nan
7105;BME280;3594;42.152;24.714;2023-04-19T13:08:39;-24239.94;;;15.16;nan
7105;BME280;3594;42.152;24.714;2023-04-19T13:11:08;-24237.81;;;15.09;nan
7105;BME280;3594;42.152;24.714;2023-04-19T13:13:34;-24238.53;;;15.11;nan
7105;BME280;3594;42.152;24.714;2023-04-19T13:15:59;-24233.91;;;14.94;nan
7105;BME280;3594;42.152;24.714;2023-04-19T13:18:25;-24237.00;;;15.06;nan
7105;BME280;3594;42.152;24.714;2023-04-19T13:20:50;-24242.72;;;15.26;nan
7105;BME280;3594;42.152;24.714;2023-04-19T13:23:18;-24249.16;;;15.49;nan
7105;BME280;3594;42.152;24.714;2023-04-19T13:25:43;-24249.75;;;15.52;nan
7105;BME280;3594;42.152;24.714;2023-04-19T13:28:08;-24252.13;;;15.60;nan
7105;BME280;3594;42.152;24.714;2023-04-19T13:30:34;-24248.47;;;15.47;nan
7105;BME280;3594;42.152;24.714;2023-04-19T13:32:59;-24253.66;;;15.66;nan
7105;BME280;3594;42.152;24.714;2023-04-19T13:35:25;-24247.22;;;15.42;nan
7105;BME280;3594;42.152;24.714;2023-04-19T13:37:53;-24256.88;;;15.77;nan
7105;BME280;3594;42.152;24.714;2023-04-19T13:40:20;-24247.91;;;15.45;nan
7105;BME280;3594;42.152;24.714;2023-04-19T13:42:45;-24245.94;;;15.38;nan